createdAt,value
2022-10-13T00:01:10.889Z,85.16
2022-10-13T00:03:39.790Z,85.40
2022-10-13T00:06:09.394Z,85.92
2022-10-13T00:08:39.859Z,85.74
2022-10-13T00:11:13.447Z,85.89
2022-10-13T00:13:42.112Z,86.31
2022-10-13T00:16:11.007Z,86.84
2022-10-13T00:18:39.459Z,87.14
2022-10-13T00:21:09.066Z,87.65
2022-10-13T00:23:39.270Z,87.57
2022-10-13T00:26:10.007Z,87.62
2022-10-13T00:28:38.624Z,87.39
2022-10-13T00:31:16.220Z,87.35
2022-10-13T00:33:44.548Z,87.56
2022-10-13T00:36:14.187Z,87.10
2022-10-13T00:38:44.203Z,87.09
2022-10-13T00:41:12.597Z,87.03
2022-10-13T00:43:58.346Z,87.09
2022-10-13T00:46:28.115Z,87.14
2022-10-13T00:49:02.159Z,87.07
2022-10-13T00:51:33.580Z,86.92
2022-10-13T00:54:06.798Z,87.15
2022-10-13T00:56:37.374Z,86.81
2022-10-13T00:59:07.526Z,87.35
2022-10-13T01:01:36.062Z,87.16
2022-10-13T01:04:04.475Z,87.04
2022-10-13T01:06:34.716Z,86.68
2022-10-13T01:09:04.618Z,86.21
2022-10-13T01:12:02.359Z,85.87
2022-10-13T01:14:35.614Z,86.08
2022-10-13T01:17:15.333Z,86.57
2022-10-13T01:20:06.366Z,86.30
2022-10-13T01:22:46.378Z,86.84
2022-10-13T01:25:34.416Z,86.80
2022-10-13T01:28:20.123Z,87.21
2022-10-13T01:30:55.283Z,86.77
2022-10-13T01:33:31.672Z,86.15
2022-10-13T01:36:12.993Z,86.23
2022-10-13T01:38:49.190Z,85.31
2022-10-13T01:41:24.114Z,85.34
2022-10-13T01:43:57.504Z,85.76
2022-10-13T01:46:31.022Z,86.77
2022-10-13T01:49:03.601Z,87.04
2022-10-13T01:51:33.579Z,87.34
2022-10-13T01:54:02.005Z,86.84
2022-10-13T01:56:30.042Z,86.52
2022-10-13T01:59:01.134Z,86.27
2022-10-13T02:01:45.311Z,85.74
2022-10-13T02:04:26.289Z,85.87
2022-10-13T02:06:59.082Z,85.49
2022-10-13T02:09:34.652Z,85.75
2022-10-13T02:12:08.583Z,85.87
2022-10-13T02:14:41.578Z,85.72
2022-10-13T02:17:11.666Z,85.27
2022-10-13T02:19:42.122Z,85.14
2022-10-13T02:22:16.127Z,85.04
2022-10-13T02:24:44.379Z,85.01
2022-10-13T02:27:13.007Z,84.97
2022-10-13T02:29:51.267Z,84.67
2022-10-13T02:32:22.508Z,85.54
2022-10-13T02:34:51.679Z,85.19
2022-10-13T02:37:19.671Z,85.16
2022-10-13T02:39:47.935Z,85.56
2022-10-13T02:42:18.419Z,85.75
2022-10-13T02:44:47.390Z,85.07
2022-10-13T02:47:19.687Z,85.18
2022-10-13T02:49:48.998Z,84.84
2022-10-13T02:52:17.207Z,84.49
2022-10-13T02:54:46.127Z,85.30
2022-10-13T02:57:14.188Z,86.31
2022-10-13T02:59:44.695Z,87.12
2022-10-13T03:02:12.855Z,86.64
2022-10-13T03:04:40.923Z,86.68
2022-10-13T03:07:10.803Z,87.13
2022-10-13T03:09:38.913Z,87.19
2022-10-13T03:12:07.709Z,87.34
2022-10-13T03:14:38.438Z,86.55
2022-10-13T03:17:08.804Z,86.34
2022-10-13T03:19:40.617Z,85.32
2022-10-13T03:22:15.631Z,84.86
2022-10-13T03:24:44.110Z,84.94
2022-10-13T03:27:12.126Z,84.93
2022-10-13T03:29:40.268Z,85.38
2022-10-13T03:32:08.245Z,85.57
2022-10-13T03:34:36.293Z,86.00
2022-10-13T03:37:04.297Z,86.99
2022-10-13T03:39:38.704Z,88.30
2022-10-13T03:42:07.582Z,87.73
2022-10-13T03:44:39.154Z,87.22
2022-10-13T03:47:07.135Z,87.14
2022-10-13T03:49:35.101Z,86.93
2022-10-13T03:52:03.195Z,86.92
2022-10-13T03:54:31.428Z,87.12
2022-10-13T03:57:01.946Z,86.47
2022-10-13T03:59:35.669Z,86.68
2022-10-13T04:02:04.962Z,86.53
2022-10-13T04:04:33.322Z,86.82
2022-10-13T04:07:01.480Z,87.35
2022-10-13T04:09:29.680Z,87.19
2022-10-13T04:11:57.776Z,88.23
2022-10-13T04:14:27.588Z,88.10
2022-10-13T04:17:00.617Z,88.06
2022-10-13T04:19:28.757Z,87.69
2022-10-13T04:21:57.079Z,87.24
2022-10-13T04:24:25.249Z,86.87
2022-10-13T04:26:53.631Z,86.63
2022-10-13T04:29:21.771Z,87.47
2022-10-13T04:31:54.708Z,87.09
2022-10-13T04:34:23.138Z,87.41
2022-10-13T04:36:51.790Z,87.91
2022-10-13T04:39:20.104Z,87.50
2022-10-13T04:41:52.114Z,87.93
2022-10-13T04:44:20.637Z,88.28
2022-10-13T04:46:48.719Z,88.15
2022-10-13T04:49:18.733Z,88.06
2022-10-13T04:51:46.692Z,87.87
2022-10-13T04:54:15.003Z,87.64
2022-10-13T04:56:45.688Z,87.43
2022-10-13T04:59:13.794Z,88.01
2022-10-13T05:01:41.958Z,87.03
2022-10-13T05:04:14.610Z,88.01
2022-10-13T05:07:12.516Z,87.25
2022-10-13T05:09:32.562Z,87.88
2022-10-13T05:12:00.812Z,88.41
2022-10-13T05:14:31.075Z,88.43
2022-10-13T05:17:01.317Z,87.01
2022-10-13T05:19:29.468Z,86.38
2022-10-13T05:22:00.562Z,86.93
2022-10-13T05:24:36.748Z,87.33
2022-10-13T05:27:07.048Z,87.71
2022-10-13T05:29:35.386Z,88.00
2022-10-13T05:32:03.558Z,87.74
2022-10-13T05:34:32.706Z,87.53
2022-10-13T05:37:02.370Z,87.24
2022-10-13T05:39:31.707Z,87.57
2022-10-13T05:41:59.846Z,87.94
2022-10-13T05:44:27.861Z,89.19
2022-10-13T05:46:56.883Z,89.61
2022-10-13T05:49:24.876Z,89.23
2022-10-13T05:51:56.205Z,89.57
2022-10-13T05:54:31.899Z,89.95
2022-10-13T05:57:04.050Z,90.21
2022-10-13T05:59:36.304Z,90.29
2022-10-13T06:02:07.560Z,90.40
2022-10-13T06:04:39.737Z,90.53
2022-10-13T06:07:09.166Z,90.47
2022-10-13T06:09:41.901Z,90.53
2022-10-13T06:12:11.020Z,90.49
2022-10-13T06:14:39.211Z,90.54
2022-10-13T06:17:07.986Z,90.68
2022-10-13T06:19:36.612Z,90.69
2022-10-13T06:22:10.459Z,91.22
2022-10-13T06:24:40.062Z,91.56
2022-10-13T06:27:09.969Z,91.81
2022-10-13T06:29:38.013Z,91.57
2022-10-13T06:32:07.074Z,91.22
2022-10-13T06:34:35.397Z,91.09
2022-10-13T06:37:03.402Z,90.99
2022-10-13T06:39:31.385Z,91.12
2022-10-13T06:42:04.419Z,91.37
2022-10-13T06:44:38.751Z,91.49
2022-10-13T06:47:07.152Z,91.83
2022-10-13T06:49:35.259Z,92.08
2022-10-13T06:52:03.772Z,92.28
2022-10-13T06:54:31.885Z,92.14
2022-10-13T06:57:00.326Z,92.27
2022-10-13T06:59:29.641Z,92.17
2022-10-13T07:01:57.724Z,91.97
2022-10-13T07:04:28.168Z,91.94
2022-10-13T07:06:59.004Z,92.41
2022-10-13T07:09:27.462Z,92.36
2022-10-13T07:11:55.581Z,91.92
2022-10-13T07:14:23.588Z,91.81
2022-10-13T07:16:53.476Z,91.29
2022-10-13T07:19:21.764Z,90.07
2022-10-13T07:21:49.836Z,88.98
2022-10-13T07:24:18.011Z,88.37
2022-10-13T07:26:46.285Z,87.88
2022-10-13T07:29:14.553Z,87.59
2022-10-13T07:31:44.153Z,87.47
2022-10-13T07:34:14.283Z,87.15
2022-10-13T07:36:42.576Z,85.67
2022-10-13T07:39:11.426Z,83.62
2022-10-13T07:41:39.453Z,84.23
2022-10-13T07:44:07.793Z,83.45
2022-10-13T07:46:35.896Z,83.02
2022-10-13T07:49:03.888Z,84.06
2022-10-13T07:51:33.827Z,83.79
2022-10-13T07:54:02.038Z,80.90
2022-10-13T07:56:30.105Z,79.64
2022-10-13T07:58:58.214Z,79.42
2022-10-13T08:01:26.566Z,80.95
2022-10-13T08:03:56.624Z,80.08
2022-10-13T08:06:24.752Z,78.77
2022-10-13T08:08:57.803Z,78.36
2022-10-13T08:11:25.914Z,79.54
2022-10-13T08:13:56.064Z,77.97
2022-10-13T08:16:24.618Z,77.25
2022-10-13T08:18:53.081Z,75.00
2022-10-13T08:24:14.544Z,72.79
2022-10-13T08:26:44.302Z,74.03
2022-10-13T08:29:28.473Z,74.52
2022-10-13T08:31:57.072Z,73.69
2022-10-13T08:34:26.235Z,71.62
2022-10-13T08:36:56.730Z,68.95
2022-10-13T08:39:26.477Z,71.63
2022-10-13T08:41:57.425Z,67.50
2022-10-13T08:47:34.229Z,66.36
2022-10-13T08:50:08.117Z,65.92
2022-10-13T08:52:48.188Z,64.40
2022-10-13T08:55:25.286Z,64.63
2022-10-13T08:57:53.863Z,64.94
2022-10-13T09:00:27.292Z,64.48
2022-10-13T09:02:59.119Z,65.31
2022-10-13T09:05:45.008Z,64.61
2022-10-13T09:08:17.464Z,64.20
2022-10-13T09:10:51.837Z,62.81
2022-10-13T09:13:20.833Z,65.01
2022-10-13T09:15:51.523Z,66.15
2022-10-13T09:18:19.572Z,62.42
2022-10-13T09:20:47.647Z,63.04
2022-10-13T09:23:20.878Z,65.42
2022-10-13T09:25:51.802Z,61.95
2022-10-13T09:28:23.495Z,60.32
2022-10-13T09:31:03.332Z,63.08
2022-10-13T09:33:36.168Z,64.72
2022-10-13T09:36:11.872Z,63.92
2022-10-13T09:38:40.124Z,62.30
2022-10-13T09:41:15.363Z,61.98
2022-10-13T09:44:01.506Z,63.87
2022-10-13T09:46:32.669Z,62.60
2022-10-13T09:49:04.184Z,61.61
2022-10-13T09:51:37.575Z,63.41
2022-10-13T09:54:28.659Z,63.25
2022-10-13T09:57:03.771Z,62.08
2022-10-13T09:59:34.460Z,60.31
2022-10-13T10:02:19.367Z,61.33
2022-10-13T10:04:52.292Z,62.24
2022-10-13T10:07:23.445Z,61.79
2022-10-13T10:09:56.073Z,61.82
2022-10-13T10:12:30.026Z,61.08
2022-10-13T10:14:59.215Z,62.15
2022-10-13T10:17:33.530Z,62.85
2022-10-13T10:20:16.824Z,63.01
2022-10-13T10:22:53.993Z,61.47
2022-10-13T10:25:33.297Z,62.45
2022-10-13T10:28:22.810Z,57.47
2022-10-13T10:30:58.807Z,58.70
2022-10-13T10:33:37.952Z,58.78
2022-10-13T10:36:17.060Z,58.13
2022-10-13T10:38:49.391Z,58.25
2022-10-13T10:41:39.871Z,57.42
2022-10-13T10:44:12.409Z,56.03
2022-10-13T10:46:43.488Z,56.69
2022-10-13T10:49:18.312Z,60.45
2022-10-13T10:51:47.641Z,55.72
2022-10-13T10:54:32.355Z,56.48
2022-10-13T10:57:07.128Z,58.37
2022-10-13T10:59:50.753Z,55.43
2022-10-13T11:02:46.401Z,55.71
2022-10-13T11:05:15.457Z,55.29
2022-10-13T11:08:00.401Z,54.93
2022-10-13T11:10:29.885Z,55.27
2022-10-13T11:13:22.349Z,56.62
2022-10-13T11:15:51.979Z,59.05
2022-10-13T11:18:59.240Z,56.59
2022-10-13T11:22:24.897Z,55.66
2022-10-13T11:25:34.806Z,55.50
2022-10-13T11:28:49.040Z,55.71
2022-10-13T11:31:33.640Z,56.54
2022-10-13T11:34:04.293Z,54.05
2022-10-13T11:36:47.748Z,53.99
2022-10-13T11:39:46.635Z,55.98
2022-10-13T11:42:34.659Z,54.72
2022-10-13T11:45:14.482Z,55.81
2022-10-13T11:50:50.185Z,54.06
2022-10-13T11:53:21.932Z,54.32
2022-10-13T11:55:52.825Z,52.58
2022-10-13T11:58:23.482Z,56.92
2022-10-13T12:00:55.303Z,53.63
2022-10-13T12:03:26.982Z,54.32
2022-10-13T12:05:57.675Z,55.08
2022-10-13T12:08:27.290Z,53.32
2022-10-13T12:10:58.270Z,54.04
2022-10-13T12:13:28.941Z,54.71
2022-10-13T12:16:03.632Z,54.83
2022-10-13T12:18:34.294Z,54.07
2022-10-13T12:21:05.169Z,53.90
2022-10-13T12:23:35.145Z,52.48
2022-10-13T12:26:03.569Z,55.58
2022-10-13T12:28:45.904Z,52.74
2022-10-13T12:31:21.257Z,54.57
2022-10-13T12:34:00.283Z,51.13
2022-10-13T12:36:31.231Z,52.15
2022-10-13T12:39:03.222Z,52.72
2022-10-13T12:41:35.296Z,53.83
2022-10-13T12:44:06.533Z,54.55
2022-10-13T12:46:46.391Z,53.06
2022-10-13T12:49:17.224Z,51.61
2022-10-13T12:51:47.824Z,51.90
2022-10-13T12:54:22.402Z,55.27
2022-10-13T12:56:56.099Z,51.56
2022-10-13T12:59:25.417Z,53.36
2022-10-13T13:01:57.440Z,54.33
2022-10-13T13:04:46.285Z,53.27
2022-10-13T13:07:29.678Z,55.64
2022-10-13T13:10:20.515Z,55.84
2022-10-13T13:12:49.667Z,54.88
2022-10-13T13:15:32.976Z,54.72
2022-10-13T13:18:30.361Z,54.19
2022-10-13T13:20:58.910Z,56.07
2022-10-13T13:23:33.324Z,53.92
2022-10-13T13:26:03.047Z,56.48
2022-10-13T13:28:32.640Z,52.90
2022-10-13T13:31:04.650Z,55.97
2022-10-13T13:33:34.689Z,54.47
2022-10-13T13:36:03.246Z,55.06
2022-10-13T13:38:33.425Z,52.69
2022-10-13T13:41:03.953Z,55.11
2022-10-13T13:43:32.657Z,54.69
2022-10-13T13:46:00.704Z,56.64
2022-10-13T13:48:28.833Z,55.79
2022-10-13T13:51:00.897Z,56.35
2022-10-13T13:53:29.029Z,52.71
2022-10-13T13:55:57.301Z,53.65
2022-10-13T13:58:25.343Z,55.29
2022-10-13T14:00:53.566Z,54.34
2022-10-13T14:03:21.819Z,53.23
2022-10-13T14:05:49.997Z,53.20
2022-10-13T14:08:21.578Z,54.48
2022-10-13T14:10:49.737Z,56.27
2022-10-13T14:13:19.313Z,57.80
2022-10-13T14:15:47.407Z,55.89
2022-10-13T14:18:16.574Z,56.09
2022-10-13T14:20:46.767Z,55.25
2022-10-13T14:23:14.876Z,59.89
2022-10-13T14:25:44.447Z,58.18
2022-10-13T14:28:15.906Z,58.10
2022-10-13T14:30:46.285Z,57.71
2022-10-13T14:33:19.186Z,59.34
2022-10-13T14:35:47.356Z,58.77
2022-10-13T14:38:17.536Z,60.00
2022-10-13T14:40:47.005Z,61.09
2022-10-13T14:43:15.037Z,58.48
2022-10-13T14:45:43.178Z,60.00
2022-10-13T14:48:12.328Z,60.63
2022-10-13T14:50:40.357Z,58.83
2022-10-13T14:53:11.418Z,59.90
2022-10-13T14:55:39.947Z,61.08
2022-10-13T14:58:10.300Z,60.80
2022-10-13T15:00:38.819Z,61.81
2022-10-13T15:03:11.480Z,62.73
2022-10-13T15:05:40.015Z,64.15
2022-10-13T15:08:08.154Z,63.07
2022-10-13T15:10:36.783Z,62.90
2022-10-13T15:13:04.790Z,62.16
2022-10-13T15:15:34.337Z,61.83
2022-10-13T15:18:02.322Z,61.89
2022-10-13T15:20:30.432Z,61.74
2022-10-13T15:22:58.463Z,61.84
2022-10-13T15:25:26.546Z,62.41
2022-10-13T15:27:56.610Z,62.62
2022-10-13T15:30:24.863Z,63.70
2022-10-13T15:32:54.476Z,63.22
2022-10-13T15:35:22.475Z,63.07
2022-10-13T15:37:50.608Z,62.25
2022-10-13T15:40:18.759Z,61.91
2022-10-13T15:42:46.848Z,62.25
2022-10-13T15:45:15.955Z,62.04
2022-10-13T15:47:43.956Z,62.78
2022-10-13T15:50:15.132Z,63.05
2022-10-13T15:52:43.418Z,63.50
2022-10-13T15:55:13.319Z,63.94
2022-10-13T15:57:43.322Z,62.77
2022-10-13T16:00:14.376Z,64.25
2022-10-13T16:02:43.734Z,65.28
2022-10-13T16:05:16.641Z,67.33
2022-10-13T16:07:49.048Z,68.66
2022-10-13T16:10:17.765Z,69.29
2022-10-13T16:12:49.604Z,68.84
2022-10-13T16:15:21.099Z,68.13
2022-10-13T16:17:49.421Z,69.23
2022-10-13T16:20:25.479Z,68.31
2022-10-13T16:22:55.937Z,68.18
2022-10-13T16:25:24.317Z,68.87
2022-10-13T16:27:52.281Z,67.86
2022-10-13T16:30:20.301Z,67.94
2022-10-13T16:32:51.340Z,68.56
2022-10-13T16:35:21.063Z,74.56
2022-10-13T16:37:49.025Z,76.45
2022-10-13T16:40:20.090Z,76.00
2022-10-13T16:42:51.436Z,76.68
2022-10-13T16:45:23.932Z,77.05
2022-10-13T16:47:59.163Z,75.25
2022-10-13T16:50:29.063Z,74.62
2022-10-13T16:52:57.726Z,74.15
2022-10-13T16:55:26.469Z,73.47
2022-10-13T16:57:56.971Z,73.56
2022-10-13T17:00:25.429Z,73.96
2022-10-13T17:02:53.722Z,75.14
2022-10-13T17:05:22.233Z,75.79
2022-10-13T17:07:53.404Z,76.91
2022-10-13T17:10:23.666Z,75.57
2022-10-13T17:12:53.382Z,76.09
2022-10-13T17:15:22.320Z,76.22
2022-10-13T17:17:50.885Z,75.41
2022-10-13T17:20:19.444Z,75.49
2022-10-13T17:22:48.572Z,77.43
2022-10-13T17:25:20.494Z,76.72
2022-10-13T17:27:48.753Z,73.92
2022-10-13T17:30:17.426Z,73.96
2022-10-13T17:32:46.161Z,73.66
2022-10-13T17:35:18.267Z,73.49
2022-10-13T17:37:46.618Z,73.28
2022-10-13T17:40:15.940Z,74.15
2022-10-13T17:42:45.597Z,77.44
2022-10-13T17:45:14.052Z,76.21
2022-10-13T17:47:48.762Z,75.77
2022-10-13T17:50:19.666Z,75.92
2022-10-13T17:52:48.073Z,75.66
2022-10-13T17:55:16.643Z,75.82
2022-10-13T17:57:47.192Z,76.44
2022-10-13T18:00:17.197Z,75.96
2022-10-13T18:02:47.325Z,76.17
2022-10-13T18:05:17.349Z,75.70
2022-10-13T18:07:46.041Z,76.73
2022-10-13T18:10:15.784Z,77.19
2022-10-13T18:12:48.052Z,76.29
2022-10-13T18:15:18.590Z,77.46
2022-10-13T18:17:49.224Z,77.01
2022-10-13T18:20:18.871Z,77.72
2022-10-13T18:22:48.890Z,77.45
2022-10-13T18:25:17.947Z,77.24
2022-10-13T18:27:47.719Z,77.87
2022-10-13T18:30:21.370Z,78.41
2022-10-13T18:32:53.136Z,78.43
2022-10-13T18:35:22.032Z,78.15
2022-10-13T18:37:51.465Z,78.40
2022-10-13T18:40:21.617Z,78.23
2022-10-13T18:42:54.918Z,77.65
2022-10-13T18:45:24.332Z,77.58
2022-10-13T18:47:53.770Z,78.34
2022-10-13T18:50:21.868Z,78.78
2022-10-13T18:52:50.133Z,78.49
2022-10-13T18:55:18.817Z,78.76
2022-10-13T18:57:47.265Z,79.34
2022-10-13T19:00:17.847Z,78.77
2022-10-13T19:02:46.083Z,79.05
2022-10-13T19:05:14.521Z,78.97
2022-10-13T19:07:42.838Z,78.89
2022-10-13T19:10:11.610Z,78.95
2022-10-13T19:12:42.402Z,79.10
2022-10-13T19:15:10.926Z,79.47
2022-10-13T19:17:40.744Z,78.94
2022-10-13T19:20:09.655Z,78.86
2022-10-13T19:22:38.072Z,79.60
2022-10-13T19:25:07.211Z,80.39
2022-10-13T19:27:35.680Z,80.25
2022-10-13T19:30:03.910Z,80.03
2022-10-13T19:32:32.535Z,79.75
2022-10-13T19:35:02.134Z,80.23
2022-10-13T19:37:32.283Z,81.23
2022-10-13T19:40:02.753Z,81.02
2022-10-13T19:42:31.162Z,80.44
2022-10-13T19:45:01.379Z,80.26
2022-10-13T19:47:30.253Z,80.90
2022-10-13T19:49:58.683Z,81.52
2022-10-13T19:52:28.218Z,81.36
2022-10-13T19:55:03.236Z,84.40
2022-10-13T19:57:31.808Z,84.14
2022-10-13T20:00:00.505Z,84.58
2022-10-13T20:02:28.529Z,84.25
2022-10-13T20:04:56.753Z,83.40
2022-10-13T20:07:24.899Z,83.10
2022-10-13T20:09:54.711Z,84.08
2022-10-13T20:12:22.786Z,83.29
2022-10-13T20:14:50.975Z,83.44
2022-10-13T20:17:19.872Z,83.07
2022-10-13T20:19:48.187Z,83.17
2022-10-13T20:22:16.306Z,82.82
2022-10-13T20:24:45.635Z,82.35
2022-10-13T20:27:24.505Z,82.54
2022-10-13T20:29:56.042Z,83.00
2022-10-13T20:32:25.612Z,82.47
2022-10-13T20:34:54.109Z,82.42
2022-10-13T20:37:22.541Z,82.56
2022-10-13T20:39:51.405Z,81.99
2022-10-13T20:42:21.156Z,82.06
2022-10-13T20:44:49.264Z,81.89
2022-10-13T20:47:17.306Z,81.87
2022-10-13T20:49:45.519Z,81.63
2022-10-13T20:52:17.145Z,81.31
2022-10-13T20:54:49.301Z,80.95
2022-10-13T20:57:17.505Z,82.12
2022-10-13T20:59:50.252Z,83.77
2022-10-13T21:02:19.594Z,84.17
2022-10-13T21:04:50.564Z,84.65
2022-10-13T21:07:18.784Z,84.02
2022-10-13T21:09:51.454Z,83.65
2022-10-13T21:12:21.598Z,83.44
2022-10-13T21:14:51.116Z,82.86
2022-10-13T21:17:19.322Z,82.54
2022-10-13T21:19:47.579Z,82.42
2022-10-13T21:22:15.553Z,81.82
2022-10-13T21:24:43.676Z,81.92
2022-10-13T21:27:15.819Z,81.82
2022-10-13T21:29:45.756Z,81.93
2022-10-13T21:32:17.586Z,82.10
2022-10-13T21:34:49.784Z,81.86
2022-10-13T21:37:20.344Z,81.96
2022-10-13T21:39:49.982Z,81.90
2022-10-13T21:42:18.222Z,81.80
2022-10-13T21:44:51.251Z,81.83
2022-10-13T21:47:21.770Z,81.75
2022-10-13T21:49:50.413Z,81.80
2022-10-13T21:52:18.724Z,81.85
2022-10-13T21:54:46.784Z,82.20
2022-10-13T21:57:14.914Z,82.90
2022-10-13T21:59:43.078Z,83.48
2022-10-13T22:02:11.516Z,83.87
2022-10-13T22:04:41.436Z,83.76
2022-10-13T22:07:09.470Z,84.44
2022-10-13T22:09:37.575Z,84.39
2022-10-13T22:12:05.738Z,84.89
2022-10-13T22:14:33.788Z,85.41
2022-10-13T22:17:02.045Z,85.25
2022-10-13T22:19:30.150Z,85.35
2022-10-13T22:21:59.497Z,85.56
2022-10-13T22:24:27.792Z,84.95
2022-10-13T22:26:55.910Z,84.54
2022-10-13T22:29:24.809Z,84.24
2022-10-13T22:31:56.898Z,84.52
2022-10-13T22:34:26.056Z,84.72
2022-10-13T22:36:54.963Z,84.67
2022-10-13T22:39:24.576Z,84.26
2022-10-13T22:41:54.405Z,84.38
2022-10-13T22:44:22.378Z,84.12
2022-10-13T22:46:50.478Z,84.24
2022-10-13T22:49:18.610Z,84.20
2022-10-13T22:51:46.528Z,83.85
2022-10-13T22:54:14.518Z,83.99
2022-10-13T22:56:44.051Z,83.46
2022-10-13T22:59:13.817Z,83.11
2022-10-13T23:01:42.252Z,83.53
2022-10-13T23:04:10.382Z,83.11
2022-10-13T23:06:38.605Z,83.84
2022-10-13T23:09:09.340Z,84.93
2022-10-13T23:11:37.981Z,85.56
2022-10-13T23:14:07.994Z,85.66
2022-10-13T23:16:36.445Z,86.05
2022-10-13T23:19:04.872Z,86.19
2022-10-13T23:21:33.412Z,86.79
2022-10-13T23:24:02.607Z,86.92
2022-10-13T23:26:34.243Z,86.21
2022-10-13T23:29:02.282Z,85.88
2022-10-13T23:31:31.804Z,86.58
2022-10-13T23:33:59.939Z,85.71
2022-10-13T23:36:30.338Z,85.31
2022-10-13T23:39:01.069Z,85.01
2022-10-13T23:41:29.717Z,84.52
2022-10-13T23:43:58.348Z,84.68
2022-10-13T23:46:27.202Z,84.21
2022-10-13T23:48:56.876Z,84.38
2022-10-13T23:51:26.633Z,85.61
2022-10-13T23:53:55.073Z,86.21
2022-10-13T23:56:23.903Z,86.02
2022-10-13T23:58:51.944Z,85.34
